Time;durP1;ratioP1;P1;durP2;ratioP2;P2;SDS_P1;SDS_P2;PMS_P1;PMS_P2;Temp;Humidity;BMP_temperature;BMP_pressure;BME280_temperature;BME280_humidity;BME280_pressure;Samples;Min_cycle;Max_cycle;Signal;HPM_P1;HPM_P2
2024/01/11 00:01:20;;;;;;;6.80;5.30;;;;;;;1.47;84.19;102092.59;105073;1256;73965;-60
2024/01/11 00:03:47;;;;;;;8.00;6.20;;;;;;;1.47;84.38;102123.70;104840;1258;141256;-61
2024/01/11 00:06:14;;;;;;;8.60;6.20;;;;;;;1.47;84.43;102142.98;104806;1261;61126;-61
2024/01/11 00:08:40;;;;;;;8.20;6.30;;;;;;;1.51;84.59;102158.84;104763;1256;138433;-61
2024/01/11 00:11:07;;;;;;;7.00;5.10;;;;;;;1.54;84.66;102160.29;104666;1262;65798;-61
2024/01/11 00:13:34;;;;;;;7.00;4.80;;;;;;;1.58;84.74;102159.05;104859;1256;72382;-68
2024/01/11 00:16:01;;;;;;;8.10;5.50;;;;;;;1.60;84.83;102172.02;104765;1257;138635;-68
2024/01/11 00:18:27;;;;;;;7.30;5.00;;;;;;;1.60;84.66;102171.19;104875;1257;61373;-69
2024/01/11 00:20:54;;;;;;;6.90;5.10;;;;;;;1.62;84.68;102174.83;104925;1256;139549;-68
2024/01/11 00:23:21;;;;;;;7.70;5.10;;;;;;;1.64;84.69;102160.98;105086;1257;65571;-69
2024/01/11 00:25:48;;;;;;;8.10;5.70;;;;;;;1.68;84.78;102156.79;105090;1258;73055;-68
2024/01/11 00:28:15;;;;;;;7.10;5.10;;;;;;;1.69;84.65;102163.50;106362;1256;138101;-67
2024/01/11 00:30:41;;;;;;;6.70;5.40;;;;;;;1.70;84.52;102148.61;106555;1263;61244;-67
2024/01/11 00:33:09;;;;;;;6.80;5.40;;;;;;;1.69;84.52;102155.00;106792;1256;138339;-66
2024/01/11 00:35:35;;;;;;;6.60;5.50;;;;;;;1.70;84.53;102149.86;106123;1256;65717;-66
2024/01/11 00:38:03;;;;;;;8.80;6.40;;;;;;;1.71;84.42;102145.48;104985;1261;138961;-66
2024/01/11 00:40:29;;;;;;;7.50;5.60;;;;;;;1.73;84.42;102133.84;105019;1256;61358;-68
2024/01/11 00:42:56;;;;;;;6.90;5.60;;;;;;;1.74;84.44;102137.63;105154;1256;61276;-67
2024/01/11 00:45:23;;;;;;;6.10;4.90;;;;;;;1.77;84.40;102134.71;105041;1256;138278;-67
2024/01/11 00:47:49;;;;;;;7.30;6.00;;;;;;;1.78;84.34;102139.95;105033;1261;67573;-68
2024/01/11 00:50:16;;;;;;;7.20;5.60;;;;;;;1.77;84.32;102123.81;104985;1261;138277;-66
2024/01/11 00:52:42;;;;;;;5.80;5.20;;;;;;;1.75;84.18;102127.44;105106;1256;61303;-66
2024/01/11 00:55:09;;;;;;;7.10;5.70;;;;;;;1.73;84.13;102126.44;104941;1262;61263;-68
2024/01/11 00:57:36;;;;;;;6.40;5.70;;;;;;;1.73;84.11;102108.92;104988;1260;139340;-66
2024/01/11 01:00:03;;;;;;;7.00;6.00;;;;;;;1.74;84.14;102093.97;105100;1256;67045;-68
2024/01/11 01:02:30;;;;;;;6.80;5.70;;;;;;;1.77;84.19;102097.70;105104;1256;138246;-67
2024/01/11 01:04:56;;;;;;;10.30;6.00;;;;;;;1.79;84.14;102100.08;105043;1256;61380;-67
2024/01/11 01:07:23;;;;;;;7.40;6.00;;;;;;;1.80;84.15;102102.88;104939;1257;61353;-61
2024/01/11 01:09:50;;;;;;;7.00;5.70;;;;;;;1.80;84.11;102106.56;104918;1256;138290;-61
2024/01/11 01:12:17;;;;;;;7.90;6.10;;;;;;;1.82;84.01;102113.61;105011;1262;67151;-60
2024/01/11 01:14:43;;;;;;;8.10;6.70;;;;;;;1.84;83.96;102126.80;105038;1256;138235;-68
2024/01/11 01:17:10;;;;;;;7.00;5.60;;;;;;;1.85;83.90;102144.37;105047;1260;61265;-67
2024/01/11 01:19:37;;;;;;;7.10;5.50;;;;;;;1.86;83.90;102138.07;104910;1260;61163;-68
2024/01/11 01:22:04;;;;;;;7.00;5.60;;;;;;;1.88;83.84;102139.77;104953;1257;138377;-61
2024/01/11 01:24:31;;;;;;;8.00;6.00;;;;;;;1.88;83.80;102142.17;105033;1256;65561;-67
2024/01/11 01:26:58;;;;;;;6.40;5.00;;;;;;;1.89;83.82;102142.78;104804;1259;138183;-67
2024/01/11 01:29:26;;;;;;;6.70;5.70;;;;;;;1.90;83.90;102130.23;104803;1259;61376;-61
2024/01/11 01:31:53;;;;;;;9.10;5.20;;;;;;;1.91;83.79;102118.00;104951;1262;60553;-61
2024/01/11 01:34:19;;;;;;;7.00;5.70;;;;;;;1.93;83.66;102104.84;106550;1257;138936;-69
2024/01/11 01:36:46;;;;;;;7.00;5.60;;;;;;;1.95;83.56;102100.31;104985;1256;66603;-66
2024/01/11 01:39:13;;;;;;;8.00;5.50;;;;;;;1.94;83.53;102092.15;104895;1256;138854;-67
2024/01/11 01:41:39;;;;;;;6.80;5.90;;;;;;;1.95;83.47;102078.16;104949;1257;61371;-61
2024/01/11 01:44:06;;;;;;;7.70;5.90;;;;;;;1.96;83.65;102076.16;104906;1262;137950;-60
2024/01/11 01:46:34;;;;;;;8.30;5.70;;;;;;;1.98;83.43;102069.56;104849;1256;73961;-61
2024/01/11 01:49:00;;;;;;;6.70;5.20;;;;;;;1.98;83.38;102055.39;104917;1260;66212;-64
2024/01/11 01:51:29;;;;;;;9.40;5.80;;;;;;;1.97;83.39;102038.66;104772;1256;138629;-60
2024/01/11 01:53:56;;;;;;;8.40;5.20;;;;;;;1.95;83.51;102035.08;108760;1256;59026;-68
2024/01/11 01:56:23;;;;;;;8.10;5.80;;;;;;;1.96;83.34;102041.39;104884;1256;138502;-68
2024/01/11 01:58:51;;;;;;;9.10;5.50;;;;;;;1.96;83.43;102043.98;104848;1257;75293;-67
2024/01/11 02:01:19;;;;;;;7.50;4.80;;;;;;;1.96;83.38;102038.09;106125;1257;65529;-67
2024/01/11 02:03:46;;;;;;;7.80;5.80;;;;;;;1.94;83.29;102033.84;105320;1261;138345;-68
2024/01/11 02:06:12;;;;;;;8.10;5.40;;;;;;;1.95;83.42;102034.38;104766;1259;61232;-67
2024/01/11 02:08:40;;;;;;;7.60;4.90;;;;;;;1.98;83.53;102045.82;104885;1261;138726;-66
2024/01/11 02:11:06;;;;;;;8.50;5.70;;;;;;;1.99;83.29;102054.08;104953;1258;75853;-67
2024/01/11 02:13:33;;;;;;;6.00;5.40;;;;;;;1.97;83.28;102052.91;105024;1261;65952;-66
2024/01/11 02:16:00;;;;;;;8.40;5.50;;;;;;;1.97;83.35;102049.39;104719;1258;138739;-61
2024/01/11 02:18:27;;;;;;;8.30;5.40;;;;;;;1.97;83.42;102042.84;104818;1262;61137;-67
2024/01/11 02:20:53;;;;;;;7.50;4.90;;;;;;;1.95;83.15;102029.38;104704;1262;138711;-68
2024/01/11 02:23:21;;;;;;;7.40;5.00;;;;;;;1.94;83.28;102018.05;104939;1257;74630;-62
2024/01/11 02:25:48;;;;;;;8.30;5.00;;;;;;;1.93;83.12;102005.65;104968;1256;67073;-62
2024/01/11 02:28:15;;;;;;;10.80;5.00;;;;;;;1.92;83.19;102003.15;104877;1262;138079;-60
2024/01/11 02:30:42;;;;;;;11.00;5.00;;;;;;;1.90;83.16;102000.02;104812;1260;61168;-60
2024/01/11 02:33:09;;;;;;;5.40;4.10;;;;;;;1.88;83.22;101993.98;104692;1256;138757;-67
2024/01/11 02:35:38;;;;;;;6.40;4.30;;;;;;;1.86;83.24;101990.20;104748;1258;75407;-67
2024/01/11 02:38:05;;;;;;;7.30;4.20;;;;;;;1.85;83.20;101991.53;104678;1262;138360;-61
2024/01/11 02:40:32;;;;;;;7.60;5.10;;;;;;;1.85;83.10;102007.95;104884;1261;71980;-61
2024/01/11 02:42:58;;;;;;;8.80;5.20;;;;;;;1.84;83.23;102002.34;106361;1260;60436;-61
2024/01/11 02:45:25;;;;;;;8.40;4.90;;;;;;;1.83;83.22;101998.81;108193;1257;138614;-60
2024/01/11 02:47:52;;;;;;;7.60;4.90;;;;;;;1.83;83.29;101996.61;108467;1256;73810;-60
2024/01/11 02:50:18;;;;;;;6.70;5.00;;;;;;;1.84;83.21;101987.41;105585;1258;138809;-66
2024/01/11 02:52:45;;;;;;;7.50;4.80;;;;;;;1.84;83.16;101985.52;104861;1259;71049;-60
2024/01/11 02:55:12;;;;;;;5.50;3.70;;;;;;;1.84;83.13;101968.77;105078;1258;61308;-67
2024/01/11 02:57:38;;;;;;;6.10;4.10;;;;;;;1.84;83.06;101949.89;105024;1260;138250;-60
2024/01/11 03:00:06;;;;;;;6.30;4.30;;;;;;;1.84;83.07;101941.95;105052;1256;75276;-66
2024/01/11 03:02:33;;;;;;;6.00;4.10;;;;;;;1.84;83.21;101941.59;105389;1260;138323;-67
2024/01/11 03:04:59;;;;;;;7.60;4.10;;;;;;;1.83;83.12;101944.60;104697;1262;73041;-61
2024/01/11 03:07:26;;;;;;;5.80;3.90;;;;;;;1.79;83.06;101937.74;104791;1262;61236;-61
2024/01/11 03:09:53;;;;;;;6.50;4.40;;;;;;;1.76;83.00;101925.92;104526;1262;138195;-60
2024/01/11 03:12:20;;;;;;;6.40;3.80;;;;;;;1.71;82.91;101927.93;105034;1256;75832;-60
2024/01/11 03:14:46;;;;;;;9.70;3.90;;;;;;;1.69;83.06;101933.61;104934;1259;138769;-60
2024/01/11 03:17:13;;;;;;;7.00;3.80;;;;;;;1.64;83.08;101933.80;104776;1261;73060;-61
2024/01/11 03:19:40;;;;;;;5.50;3.60;;;;;;;1.60;83.25;101927.39;104867;1265;61176;-61
2024/01/11 03:22:07;;;;;;;6.90;4.70;;;;;;;1.56;83.13;101934.54;105016;1260;138183;-67
2024/01/11 03:24:39;;;;;;;7.60;4.10;;;;;;;1.54;83.29;101935.12;104974;1257;73695;-68
2024/01/11 03:27:05;;;;;;;5.60;4.10;;;;;;;1.53;83.32;101934.98;104948;1257;138607;-59
2024/01/11 03:29:33;;;;;;;8.10;4.50;;;;;;;1.51;83.25;101936.01;104829;1256;73309;-60
2024/01/11 03:31:59;;;;;;;11.40;4.40;;;;;;;1.48;83.49;101937.02;104665;1262;138202;-60
2024/01/11 03:34:27;;;;;;;6.10;4.10;;;;;;;1.47;83.47;101948.17;104864;1260;61169;-61
2024/01/11 03:36:53;;;;;;;8.20;4.30;;;;;;;1.48;83.62;101950.82;105014;1260;74373;-68
2024/01/11 03:39:20;;;;;;;9.10;4.30;;;;;;;1.47;83.61;101932.80;104855;1260;138247;-59
2024/01/11 03:41:47;;;;;;;6.70;4.50;;;;;;;1.47;83.63;101926.19;105005;1256;73226;-61
2024/01/11 03:44:14;;;;;;;6.20;4.40;;;;;;;1.46;83.58;101923.55;104878;1257;138419;-67
2024/01/11 03:46:40;;;;;;;7.90;4.80;;;;;;;1.46;83.75;101927.31;104940;1261;61511;-67
2024/01/11 03:49:07;;;;;;;6.60;4.60;;;;;;;1.46;83.67;101931.45;104809;1256;74656;-68
2024/01/11 03:51:34;;;;;;;8.60;4.60;;;;;;;1.44;83.73;101931.34;104879;1258;138267;-67
2024/01/11 03:54:01;;;;;;;8.60;4.90;;;;;;;1.43;83.83;101929.00;105129;1257;73714;-61
2024/01/11 03:56:28;;;;;;;7.90;5.00;;;;;;;1.43;83.97;101918.48;105034;1259;138380;-61
2024/01/11 03:58:55;;;;;;;6.60;4.30;;;;;;;1.43;83.81;101917.09;104972;1261;61262;-67
2024/01/11 04:01:21;;;;;;;7.60;4.90;;;;;;;1.44;83.75;101915.19;104926;1261;74080;-68
2024/01/11 04:03:49;;;;;;;9.10;5.20;;;;;;;1.43;83.96;101910.86;104653;1261;139088;-60
2024/01/11 04:06:23;;;;;;;8.30;5.10;;;;;;;1.44;84.03;101915.23;104780;1261;73877;-69
2024/01/11 04:08:50;;;;;;;8.50;5.30;;;;;;;1.44;83.86;101920.23;106548;1257;140370;-70
2024/01/11 04:11:17;;;;;;;7.70;5.20;;;;;;;1.43;83.92;101907.72;104856;1256;61828;-69
2024/01/11 04:13:44;;;;;;;8.80;4.90;;;;;;;1.43;84.04;101914.11;105542;1260;75808;-68
2024/01/11 04:16:10;;;;;;;8.40;5.30;;;;;;;1.43;84.13;101907.17;104897;1257;138251;-68
2024/01/11 04:18:37;;;;;;;8.70;5.20;;;;;;;1.41;84.15;101891.15;104993;1260;71671;-69
2024/01/11 04:21:04;;;;;;;8.60;5.20;;;;;;;1.42;84.08;101893.77;105029;1257;138598;-69
2024/01/11 04:23:31;;;;;;;6.90;5.20;;;;;;;1.41;84.11;101894.23;105062;1260;61179;-67
2024/01/11 04:25:57;;;;;;;11.10;5.20;;;;;;;1.40;84.05;101888.11;104883;1257;138810;-61
2024/01/11 04:28:24;;;;;;;9.10;5.50;;;;;;;1.41;84.12;101880.86;104995;1261;67102;-66
2024/01/11 04:30:50;;;;;;;8.80;5.20;;;;;;;1.40;84.11;101866.48;104910;1258;72195;-60
2024/01/11 04:33:17;;;;;;;7.90;5.30;;;;;;;1.40;84.16;101865.94;104810;1257;138840;-67
2024/01/11 04:35:44;;;;;;;10.40;6.20;;;;;;;1.39;84.23;101866.56;105087;1262;61277;-67
2024/01/11 04:38:10;;;;;;;9.70;5.30;;;;;;;1.38;84.24;101877.89;105017;1259;139042;-67
2024/01/11 04:40:37;;;;;;;8.80;5.50;;;;;;;1.37;84.06;101870.95;104896;1268;66055;-61
2024/01/11 04:43:04;;;;;;;7.10;5.30;;;;;;;1.37;84.34;101866.77;104809;1261;72625;-60
2024/01/11 04:45:30;;;;;;;13.50;6.10;;;;;;;1.39;84.54;101861.03;108021;1257;139161;-69
2024/01/11 04:47:57;;;;;;;7.70;5.20;;;;;;;1.40;84.38;101858.15;108426;1256;59195;-68
2024/01/11 04:50:24;;;;;;;12.90;6.50;;;;;;;1.41;84.15;101863.95;105339;1259;138368;-68
2024/01/11 04:52:50;;;;;;;11.80;6.50;;;;;;;1.42;84.36;101859.55;104867;1261;67277;-67
2024/01/11 04:55:17;;;;;;;10.00;5.70;;;;;;;1.43;84.32;101870.90;104666;1262;73180;-59
2024/01/11 04:57:44;;;;;;;13.00;6.70;;;;;;;1.45;84.32;101871.17;104737;1257;138522;-65
2024/01/11 05:00:11;;;;;;;11.50;6.90;;;;;;;1.46;84.17;101871.11;104858;1260;61114;-67
2024/01/11 05:02:38;;;;;;;8.60;5.10;;;;;;;1.49;84.55;101867.86;104995;1256;138578;-60
2024/01/11 05:05:05;;;;;;;8.60;5.60;;;;;;;1.51;84.38;101862.53;105052;1260;65864;-60
2024/01/11 05:07:31;;;;;;;10.20;5.50;;;;;;;1.53;84.51;101862.83;104856;1262;73318;-60
2024/01/11 05:09:58;;;;;;;9.00;5.60;;;;;;;1.54;84.44;101869.52;104670;1262;138543;-61
2024/01/11 05:12:25;;;;;;;8.50;5.10;;;;;;;1.56;84.37;101863.61;104778;1262;61237;-60
2024/01/11 05:14:52;;;;;;;10.10;5.50;;;;;;;1.58;84.42;101863.42;104833;1256;139258;-67
2024/01/11 05:17:18;;;;;;;9.00;6.10;;;;;;;1.62;84.45;101862.65;104889;1258;65832;-68
2024/01/11 05:19:45;;;;;;;9.80;5.00;;;;;;;1.63;84.29;101860.54;104808;1262;71936;-67
2024/01/11 05:22:11;;;;;;;8.30;5.20;;;;;;;1.66;84.35;101864.68;104945;1262;138650;-67
2024/01/11 05:24:39;;;;;;;11.80;5.20;;;;;;;1.69;84.27;101867.17;104967;1257;61566;-67
2024/01/11 05:27:05;;;;;;;12.60;5.40;;;;;;;1.70;84.28;101870.38;104819;1263;139056;-67
2024/01/11 05:29:32;;;;;;;8.50;6.10;;;;;;;1.71;84.21;101872.73;105067;1258;65830;-60
2024/01/11 05:31:59;;;;;;;11.70;6.10;;;;;;;1.72;84.32;101872.84;104789;1262;138798;-66
2024/01/11 05:34:26;;;;;;;7.50;5.30;;;;;;;1.76;84.48;101875.70;105021;1261;61191;-64
2024/01/11 05:36:52;;;;;;;7.70;5.50;;;;;;;1.80;84.37;101884.66;104983;1257;61287;-66
2024/01/11 05:39:19;;;;;;;12.10;5.80;;;;;;;1.82;84.30;101888.33;104816;1259;138337;-66
2024/01/11 05:41:45;;;;;;;9.60;5.90;;;;;;;1.83;84.13;101888.03;104813;1257;65601;-65
2024/01/11 05:44:12;;;;;;;9.60;5.70;;;;;;;1.85;84.22;101885.61;104675;1261;138303;-65
2024/01/11 05:46:39;;;;;;;8.10;5.40;;;;;;;1.88;84.41;101875.83;104827;1258;61277;-67
2024/01/11 05:49:06;;;;;;;9.60;5.30;;;;;;;1.92;84.24;101869.48;104746;1261;61271;-66
2024/01/11 05:51:32;;;;;;;9.30;5.40;;;;;;;1.93;84.08;101867.33;104605;1261;138347;-66
2024/01/11 05:53:59;;;;;;;7.20;4.90;;;;;;;1.94;84.26;101861.04;104707;1261;66008;-66
2024/01/11 05:56:26;;;;;;;9.80;6.10;;;;;;;1.97;84.21;101857.92;104725;1257;139204;-66
2024/01/11 05:58:52;;;;;;;8.90;5.40;;;;;;;1.97;84.05;101861.72;104993;1257;61362;-67
2024/01/11 06:01:19;;;;;;;10.50;5.40;;;;;;;1.97;84.04;101871.67;104815;1259;61242;-64
2024/01/11 06:03:46;;;;;;;8.90;5.80;;;;;;;1.99;84.16;101877.00;104599;1262;138511;-65
2024/01/11 06:06:12;;;;;;;10.90;4.50;;;;;;;2.00;83.91;101886.58;104688;1257;64334;-66
2024/01/11 06:08:39;;;;;;;9.40;5.10;;;;;;;2.00;83.91;101890.20;104656;1261;138825;-66
2024/01/11 06:11:07;;;;;;;8.80;4.90;;;;;;;2.00;83.94;101885.71;104798;1264;61291;-66
2024/01/11 06:13:34;;;;;;;12.40;5.40;;;;;;;2.01;84.14;101886.61;104767;1271;61161;-64
2024/01/11 06:16:01;;;;;;;9.20;5.60;;;;;;;2.01;83.84;101890.79;104709;1257;138498;-65
2024/01/11 06:18:28;;;;;;;8.60;5.10;;;;;;;2.00;83.84;101893.89;104988;1260;65784;-60
2024/01/11 06:20:54;;;;;;;12.00;5.40;;;;;;;2.00;83.86;101895.04;104872;1262;138635;-59
2024/01/11 06:23:21;;;;;;;9.30;5.00;;;;;;;2.02;84.01;101889.89;108522;1257;59441;-60
2024/01/11 06:25:48;;;;;;;8.50;4.70;;;;;;;2.05;83.89;101886.45;108654;1258;59111;-60
2024/01/11 06:28:16;;;;;;;10.60;5.50;;;;;;;2.06;83.90;101888.29;108799;1257;137916;-61
2024/01/11 06:30:43;;;;;;;8.70;5.10;;;;;;;2.08;83.66;101877.84;108994;1257;66349;-59
2024/01/11 06:33:10;;;;;;;9.20;5.90;;;;;;;2.06;83.66;101868.05;108933;1259;138860;-60
2024/01/11 06:35:36;;;;;;;13.80;6.00;;;;;;;2.06;83.58;101866.94;109034;1256;59204;-60
2024/01/11 06:38:03;;;;;;;9.20;5.70;;;;;;;2.06;83.53;101869.73;108849;1257;138682;-61
2024/01/11 06:40:30;;;;;;;9.60;5.40;;;;;;;2.05;83.41;101866.92;108766;1260;73670;-60
2024/01/11 06:42:56;;;;;;;9.20;5.40;;;;;;;2.06;83.49;101862.27;108988;1260;66623;-60
2024/01/11 06:45:23;;;;;;;10.90;5.50;;;;;;;2.03;83.37;101859.13;108873;1260;138882;-60
2024/01/11 06:47:49;;;;;;;7.80;5.40;;;;;;;2.02;83.33;101859.06;108865;1260;59032;-60
2024/01/11 06:50:16;;;;;;;9.90;5.00;;;;;;;2.01;83.34;101859.66;108812;1257;139201;-60
2024/01/11 06:52:43;;;;;;;13.40;6.30;;;;;;;2.00;83.41;101863.70;108901;1257;73922;-60
2024/01/11 06:55:10;;;;;;;9.40;5.20;;;;;;;1.99;83.39;101865.00;108988;1257;66398;-61
2024/01/11 06:57:37;;;;;;;9.80;5.40;;;;;;;1.99;83.45;101875.91;108879;1257;138340;-60
2024/01/11 07:00:05;;;;;;;9.10;6.30;;;;;;;1.98;83.54;101877.58;108964;1257;59088;-61
2024/01/11 07:02:33;;;;;;;9.80;6.30;;;;;;;1.98;83.43;101878.44;108879;1257;139225;-60
2024/01/11 07:05:00;;;;;;;11.30;5.70;;;;;;;1.97;83.40;101872.69;108885;1257;74216;-59
2024/01/11 07:07:27;;;;;;;10.50;5.40;;;;;;;1.96;83.47;101874.16;108872;1258;66071;-60
2024/01/11 07:09:55;;;;;;;12.80;6.30;;;;;;;1.94;83.54;101873.16;108844;1256;139271;-60
2024/01/11 07:12:22;;;;;;;9.10;5.30;;;;;;;1.93;83.40;101868.70;108974;1256;59055;-60
2024/01/11 07:14:49;;;;;;;8.60;5.00;;;;;;;1.91;83.37;101869.77;105887;1257;138605;-59
2024/01/11 07:17:15;;;;;;;9.40;5.20;;;;;;;1.89;83.47;101865.13;105175;1263;74174;-60
2024/01/11 07:19:42;;;;;;;8.40;5.30;;;;;;;1.86;83.75;101863.66;104954;1260;66725;-65
2024/01/11 07:22:09;;;;;;;11.80;5.80;;;;;;;1.84;83.62;101866.50;104851;1261;138887;-65
2024/01/11 07:24:37;;;;;;;12.70;5.90;;;;;;;1.82;83.87;101865.95;105146;1263;61238;-66
2024/01/11 07:27:05;;;;;;;10.40;6.20;;;;;;;1.80;83.76;101866.14;104963;1258;138755;-66
2024/01/11 07:29:33;;;;;;;11.90;6.60;;;;;;;1.79;83.94;101879.37;105238;1256;74233;-65
2024/01/11 07:32:00;;;;;;;10.50;5.60;;;;;;;1.78;84.04;101882.59;105998;1261;138615;-64
2024/01/11 07:34:27;;;;;;;12.00;6.40;;;;;;;1.78;84.16;101886.77;105163;1260;70797;-60
2024/01/11 07:36:54;;;;;;;12.40;6.10;;;;;;;1.78;84.17;101891.83;108971;1257;58966;-59
2024/01/11 07:39:22;;;;;;;12.80;7.00;;;;;;;1.80;84.20;101890.52;108810;1261;138359;-60
2024/01/11 07:41:49;;;;;;;10.20;6.20;;;;;;;1.80;84.11;101895.39;108897;1257;74611;-60
2024/01/11 07:44:15;;;;;;;12.30;6.20;;;;;;;1.80;84.27;101889.89;108819;1257;138604;-60
2024/01/11 07:46:42;;;;;;;13.10;6.50;;;;;;;1.79;84.22;101887.88;108951;1259;73184;-59
2024/01/11 07:49:10;;;;;;;12.30;5.40;;;;;;;1.79;84.26;101882.17;108916;1257;59099;-65
2024/01/11 07:51:36;;;;;;;13.80;6.80;;;;;;;1.79;84.10;101872.98;108950;1257;138399;-60
2024/01/11 07:54:04;;;;;;;13.90;7.00;;;;;;;1.81;84.23;101875.72;109021;1257;73794;-60
2024/01/11 07:56:31;;;;;;;14.30;6.80;;;;;;;1.84;84.38;101878.58;108937;1257;138445;-65
2024/01/11 07:58:58;;;;;;;10.90;6.10;;;;;;;1.85;84.26;101884.70;105497;1257;71729;-59
2024/01/11 08:01:24;;;;;;;10.10;5.90;;;;;;;1.83;84.12;101880.94;104879;1263;62116;-59
2024/01/11 08:03:54;;;;;;;11.00;6.70;;;;;;;1.82;84.20;101879.14;104938;1258;138550;-59
2024/01/11 08:06:21;;;;;;;11.80;6.10;;;;;;;1.83;84.45;101877.71;105039;1257;74040;-66
2024/01/11 08:08:51;;;;;;;12.80;6.60;;;;;;;1.90;84.49;101875.09;104982;1260;138350;-60
2024/01/11 08:11:18;;;;;;;12.40;6.60;;;;;;;1.95;84.46;101866.45;105166;1258;71798;-60
2024/01/11 08:13:45;;;;;;;11.00;6.20;;;;;;;1.98;84.60;101866.67;105157;1260;61168;-65
2024/01/11 08:16:18;;;;;;;10.80;6.20;;;;;;;2.01;84.68;101868.80;104450;1260;598896;-67
2024/01/11 08:18:45;;;;;;;12.50;6.70;;;;;;;2.05;84.69;101872.29;104980;1258;74126;-59
2024/01/11 08:21:15;;;;;;;12.70;6.70;;;;;;;2.07;84.35;101869.67;104944;1260;138799;-65
2024/01/11 08:23:47;;;;;;;11.80;6.70;;;;;;;2.06;84.38;101879.59;105058;1259;73301;-65
2024/01/11 08:26:14;;;;;;;11.70;6.00;;;;;;;2.08;84.51;101886.55;104871;1255;138484;-66
2024/01/11 08:28:41;;;;;;;16.00;6.90;;;;;;;2.13;84.39;101881.05;105178;1261;61359;-65
2024/01/11 08:31:08;;;;;;;11.50;6.70;;;;;;;2.20;84.46;101880.11;105117;1261;73877;-67
2024/01/11 08:33:36;;;;;;;15.90;7.10;;;;;;;2.28;84.50;101887.90;104849;1262;138908;-65
2024/01/11 08:36:06;;;;;;;11.60;6.40;;;;;;;2.41;84.65;101888.83;105233;1257;73905;-65
2024/01/11 08:38:33;;;;;;;14.90;7.20;;;;;;;2.51;84.54;101892.09;105502;1260;138388;-65
2024/01/11 08:41:00;;;;;;;12.70;7.00;;;;;;;2.63;84.47;101886.02;105128;1261;61273;-65
2024/01/11 08:43:27;;;;;;;12.90;6.80;;;;;;;2.74;84.37;101880.27;105253;1258;75119;-65
2024/01/11 08:45:54;;;;;;;12.70;7.20;;;;;;;2.85;84.28;101875.19;105133;1262;139164;-66
2024/01/11 08:48:21;;;;;;;10.40;6.50;;;;;;;2.93;84.07;101875.05;105218;1259;72132;-66
2024/01/11 08:50:48;;;;;;;12.50;7.00;;;;;;;2.97;83.73;101876.52;106677;1257;138572;-65
2024/01/11 08:53:15;;;;;;;12.70;7.00;;;;;;;2.98;83.67;101877.67;108998;1257;60306;-66
2024/01/11 08:55:42;;;;;;;17.60;8.90;;;;;;;3.08;83.75;101871.64;109009;1257;74083;-66
2024/01/11 08:58:10;;;;;;;15.30;8.00;;;;;;;3.21;83.78;101872.05;106419;1260;138573;-65
2024/01/11 09:00:37;;;;;;;11.10;6.80;;;;;;;3.29;83.36;101866.98;105301;1258;72199;-65
2024/01/11 09:03:04;;;;;;;13.90;8.50;;;;;;;3.34;83.11;101856.17;108798;1257;138516;-66
2024/01/11 09:05:31;;;;;;;12.00;7.10;;;;;;;3.34;82.90;101848.69;106474;1261;61214;-65
2024/01/11 09:07:58;;;;;;;14.90;7.10;;;;;;;3.29;82.64;101853.42;105021;1258;138601;-64
2024/01/11 09:10:25;;;;;;;13.60;6.00;;;;;;;3.24;82.63;101858.89;107879;1256;67140;-65
2024/01/11 09:12:52;;;;;;;14.10;6.50;;;;;;;3.18;82.48;101858.48;109005;1257;73717;-66
2024/01/11 09:15:19;;;;;;;12.00;6.80;;;;;;;3.16;82.68;101850.91;105287;1257;138639;-66
2024/01/11 09:17:46;;;;;;;15.90;6.10;;;;;;;3.17;82.66;101852.38;105094;1261;61193;-66
2024/01/11 09:20:14;;;;;;;13.80;6.20;;;;;;;3.16;82.51;101853.68;105750;1257;139573;-65
2024/01/11 09:22:41;;;;;;;10.90;6.00;;;;;;;3.11;82.31;101856.44;109010;1257;66339;-66
2024/01/11 09:25:08;;;;;;;9.90;5.50;;;;;;;3.05;82.23;101857.04;106105;1258;73104;-65
2024/01/11 09:27:35;;;;;;;12.80;5.70;;;;;;;3.04;82.53;101852.81;105062;1260;139278;-64
2024/01/11 09:30:02;;;;;;;9.10;6.10;;;;;;;3.05;82.58;101854.62;104997;1257;61244;-65
2024/01/11 09:32:31;;;;;;;11.10;5.70;;;;;;;3.02;82.29;101852.45;108934;1256;138572;-66
2024/01/11 09:34:58;;;;;;;7.80;5.10;;;;;;;2.98;82.43;101853.39;107106;1256;65463;-65
2024/01/11 09:37:24;;;;;;;8.70;5.20;;;;;;;2.95;82.46;101852.68;104964;1258;72452;-64
2024/01/11 09:39:51;;;;;;;6.40;4.90;;;;;;;2.93;82.61;101850.24;104846;1263;138415;-66
2024/01/11 09:42:17;;;;;;;9.00;5.20;;;;;;;2.91;82.54;101852.42;105036;1257;61356;-66
2024/01/11 09:44:44;;;;;;;10.70;5.30;;;;;;;2.91;82.70;101843.05;104699;1257;138645;-65
2024/01/11 09:47:11;;;;;;;10.60;4.70;;;;;;;2.92;82.75;101849.70;104858;1262;65565;-65
2024/01/11 09:49:38;;;;;;;14.10;5.60;;;;;;;2.94;82.85;101853.11;105043;1260;71852;-65
2024/01/11 09:52:05;;;;;;;12.00;5.20;;;;;;;2.98;82.87;101856.48;104921;1260;138652;-65
2024/01/11 09:54:31;;;;;;;9.50;4.90;;;;;;;3.00;82.79;101855.11;105209;1256;61282;-65
2024/01/11 09:56:58;;;;;;;11.10;5.30;;;;;;;3.04;82.86;101852.98;104927;1260;138414;-65
2024/01/11 09:59:25;;;;;;;12.10;5.40;;;;;;;3.06;82.77;101851.20;105064;1257;66886;-65
2024/01/11 10:01:52;;;;;;;9.00;4.70;;;;;;;3.04;82.65;101854.52;104952;1261;73167;-65
2024/01/11 10:04:19;;;;;;;11.60;5.20;;;;;;;3.05;82.84;101854.58;104827;1263;138308;-65
2024/01/11 10:06:46;;;;;;;7.90;4.50;;;;;;;3.10;83.00;101857.08;105131;1262;61304;-66
2024/01/11 10:09:13;;;;;;;10.00;4.40;;;;;;;3.20;82.97;101860.87;104795;1260;138454;-66
2024/01/11 10:11:39;;;;;;;7.60;4.80;;;;;;;3.33;83.09;101863.45;104972;1260;67604;-66
2024/01/11 10:14:06;;;;;;;9.90;4.60;;;;;;;3.51;83.17;101864.13;104782;1259;138670;-65
2024/01/11 10:16:33;;;;;;;9.80;4.60;;;;;;;3.68;82.85;101874.05;105158;1257;61412;-65
2024/01/11 10:19:00;;;;;;;7.40;4.50;;;;;;;3.78;82.62;101879.12;105104;1256;61350;-65
2024/01/11 10:21:30;;;;;;;13.70;4.50;;;;;;;3.87;82.33;101882.64;105134;1257;138512;-65
2024/01/11 10:23:57;;;;;;;8.70;4.70;;;;;;;3.93;82.16;101882.02;105249;1262;67244;-65
2024/01/11 10:26:24;;;;;;;7.70;4.30;;;;;;;4.03;82.26;101875.10;104999;1258;138402;-66
2024/01/11 10:28:50;;;;;;;12.10;4.80;;;;;;;4.11;81.89;101875.30;104810;1257;61360;-65
2024/01/11 10:31:18;;;;;;;9.20;4.70;;;;;;;4.15;81.85;101872.91;104987;1258;61355;-66
2024/01/11 10:33:45;;;;;;;8.10;4.50;;;;;;;4.19;81.81;101874.64;104900;1260;137963;-66
2024/01/11 10:36:11;;;;;;;10.40;5.50;;;;;;;4.23;81.62;101867.78;106891;1257;66561;-66
2024/01/11 10:38:39;;;;;;;8.90;4.80;;;;;;;4.25;81.51;101871.59;104867;1256;138486;-66
2024/01/11 10:41:06;;;;;;;9.10;4.50;;;;;;;4.26;81.36;101875.12;105137;1261;61231;-60
2024/01/11 10:43:37;;;;;;;8.60;4.30;;;;;;;4.29;81.31;101869.08;109019;1256;60074;-60
2024/01/11 10:46:06;;;;;;;6.30;4.50;;;;;;;4.36;81.31;101863.10;108818;1256;138930;-60
2024/01/11 10:48:38;;;;;;;11.50;5.00;;;;;;;4.42;81.13;101856.69;108945;1256;65906;-61
2024/01/11 10:51:07;;;;;;;8.90;4.90;;;;;;;4.46;80.90;101857.70;108927;1256;139063;-61
2024/01/11 10:53:47;;;;;;;8.80;4.20;;;;;;;4.51;80.83;101854.20;108957;1256;58956;-61
2024/01/11 10:56:17;;;;;;;9.60;4.40;;;;;;;4.52;80.64;101853.40;108960;1256;138331;-60
2024/01/11 10:58:44;;;;;;;8.30;4.20;;;;;;;4.53;80.46;101854.17;108866;1257;74450;-60
2024/01/11 11:01:11;;;;;;;9.60;4.30;;;;;;;4.54;80.43;101855.80;109027;1256;67944;-60
2024/01/11 11:03:38;;;;;;;10.80;4.90;;;;;;;4.57;80.41;101865.16;108808;1256;138236;-61
2024/01/11 11:06:06;;;;;;;8.20;4.60;;;;;;;4.58;80.33;101876.21;109029;1256;59163;-60
2024/01/11 11:08:34;;;;;;;12.60;6.00;;;;;;;4.55;80.08;101878.98;108854;1256;138737;-60
2024/01/11 11:11:04;;;;;;;10.70;5.50;;;;;;;4.51;80.06;101879.22;109003;1256;75099;-60
2024/01/11 11:13:31;;;;;;;12.00;4.90;;;;;;;4.46;79.96;101868.52;109035;1256;67566;-60
2024/01/11 11:15:58;;;;;;;10.40;4.60;;;;;;;4.46;80.04;101857.55;108852;1260;138316;-59
2024/01/11 11:18:24;;;;;;;7.20;4.10;;;;;;;4.47;80.08;101854.48;107026;1257;61346;-61